Language: 


Des rapports , des résumés tant et plus, au choix de chacun....


Données statistiques de la station
Quotidien Rapport Janvier 28, 2017 Unités:  Métrique    Anglais   les deux
« Précédent Jour
Suivant Jour »
Quotidien Hebdomadaire Mensuel Annuel Actuel
  Haut: Bas: Moyen:
Température: 9.1 °C 0.0 °C 6.3 °C
Pt de rosée: 5.8 °C -0.2 °C 2.9 °C
Humidité: 97 % 0 % 79 %
Vitesse du vent: 27.0 km/h 0.0 km/h 10.2 km/h
Rafales: 31.4 km/h - -
Vent:- - South
Pression: 1016.1 hPa 0.0 hPa -
Précipitation: 0.0 mm    
Historical Graphs
 
 
Données statistiques pour Janvier 28, 2017
Heure Température Point de rosée Pression Vent Vitesse du vent Refales Humidité Pluie (taux horaire)
00:00 6.0 °C 1.1 °C 1013.1 hPa South 10.1 km/h 17.7 km/h 71 % 0.0 mm
00:05 6.0 °C 0.9 °C 1013.1 hPa South 6.4 km/h 17.7 km/h 70 % 0.0 mm
00:10 6.1 °C 1.0 °C 1013.1 hPa SSE 9.7 km/h 17.7 km/h 70 % 0.0 mm
00:15 6.1 °C 1.0 °C 1013.1 hPa SE 14.8 km/h 16.3 km/h 70 % 0.0 mm
00:20 6.1 °C 0.8 °C 1013.1 hPa SSE 9.7 km/h 16.3 km/h 69 % 0.0 mm
00:25 6.0 °C 0.7 °C 1013.1 hPa SSW 5.8 km/h 16.3 km/h 69 % 0.0 mm
00:30 6.0 °C 0.7 °C 1013.1 hPa SSE 6.1 km/h 13.7 km/h 69 % 0.0 mm
00:35 6.0 °C 0.7 °C 1013.1 hPa South 10.8 km/h 13.7 km/h 69 % 0.0 mm
00:40 6.0 °C 0.5 °C 1013.1 hPa SSE 11.9 km/h 17.7 km/h 68 % 0.0 mm
00:45 6.0 °C 0.5 °C 1013.1 hPa SSE 7.6 km/h 17.7 km/h 68 % 0.0 mm
00:50 6.0 °C 0.5 °C 1013.1 hPa SSE 9.0 km/h 17.2 km/h 68 % 0.0 mm
00:55 6.0 °C 0.5 °C 1012.1 hPa ESE 15.8 km/h 17.2 km/h 68 % 0.0 mm
01:00 6.1 °C 0.6 °C 1012.1 hPa South 12.2 km/h 15.8 km/h 68 % 0.0 mm
01:05 6.2 °C 0.5 °C 1012.1 hPa SSE 6.9 km/h 20.1 km/h 67 % 0.0 mm
01:10 6.2 °C 0.5 °C 1012.1 hPa South 6.9 km/h 20.1 km/h 67 % 0.0 mm
01:15 6.2 °C 0.5 °C 1012.1 hPa South 10.5 km/h 21.6 km/h 67 % 0.0 mm
01:20 6.2 °C 0.3 °C 1012.1 hPa SE 11.9 km/h 21.6 km/h 66 % 0.0 mm
01:21 6.2 °C 0.3 °C 1012.1 hPa South 10.1 km/h 21.6 km/h 66 % 0.0 mm
01:26 6.1 °C 0.2 °C 1013.1 hPa SSE 15.4 km/h 17.7 km/h 66 % 0.0 mm
01:31 6.1 °C 0.2 °C 1013.1 hPa South 12.2 km/h 17.2 km/h 66 % 0.0 mm
01:36 6.0 °C -0.1 °C 1013.1 hPa South 5.0 km/h 17.2 km/h 65 % 0.0 mm
01:41 5.9 °C -0.2 °C 1012.1 hPa SSW 13.0 km/h 16.9 km/h 65 % 0.0 mm
01:46 5.9 °C 0.0 °C 1012.1 hPa SSE 20.6 km/h 20.6 km/h 66 % 0.0 mm
01:51 5.8 °C -0.1 °C 1012.1 hPa South 9.7 km/h 20.6 km/h 66 % 0.0 mm
01:56 5.8 °C -0.1 °C 1012.1 hPa ESE 12.6 km/h 27.4 km/h 66 % 0.0 mm
02:02 0.0 °C -0.2 °C 0.0 hPa South 14.0 km/h 14.0 km/h 0 % 0.0 mm
02:07 5.6 °C -0.1 °C 1012.1 hPa SSE 15.1 km/h 15.1 km/h 67 % 0.0 mm
02:12 5.6 °C -0.1 °C 1012.1 hPa SSE 6.1 km/h 16.9 km/h 67 % 0.0 mm
02:17 5.6 °C -0.1 °C 1012.1 hPa South 6.9 km/h 16.9 km/h 67 % 0.0 mm
02:22 5.6 °C -0.1 °C 1012.1 hPa SSE 10.5 km/h 16.9 km/h 67 % 0.0 mm
02:27 5.5 °C -0.2 °C 1012.1 hPa SSE 8.7 km/h 16.9 km/h 67 % 0.0 mm
02:32 5.5 °C 0.1 °C 1012.1 hPa ESE 15.4 km/h 16.3 km/h 68 % 0.0 mm
02:37 5.5 °C 0.1 °C 1012.1 hPa South 13.7 km/h 15.4 km/h 68 % 0.0 mm
02:42 5.5 °C 0.1 °C 1012.1 hPa SSE 17.7 km/h 17.7 km/h 68 % 0.0 mm
02:47 5.6 °C 0.2 °C 1012.1 hPa SSE 9.3 km/h 18.0 km/h 68 % 0.0 mm
02:52 5.6 °C 0.2 °C 1012.1 hPa SSE 10.8 km/h 18.0 km/h 68 % 0.0 mm
02:57 5.6 °C 0.2 °C 1012.1 hPa SSE 7.9 km/h 16.3 km/h 68 % 0.0 mm
03:02 5.5 °C 0.1 °C 1012.1 hPa SE 6.4 km/h 15.4 km/h 68 % 0.0 mm
03:07 5.5 °C 0.2 °C 1012.1 hPa SSE 13.0 km/h 13.0 km/h 69 % 0.0 mm
03:12 5.5 °C 0.2 °C 1012.1 hPa SSE 9.0 km/h 13.7 km/h 69 % 0.0 mm
03:17 5.5 °C 0.2 °C 1012.1 hPa SE 5.5 km/h 17.2 km/h 69 % 0.0 mm
03:22 5.4 °C 0.2 °C 1012.1 hPa SE 5.5 km/h 17.2 km/h 69 % 0.0 mm
03:27 5.3 °C 0.1 °C 1012.1 hPa SSE 9.3 km/h 13.7 km/h 69 % 0.0 mm
03:32 5.2 °C -0.1 °C 1012.1 hPa SSE 17.7 km/h 17.7 km/h 69 % 0.0 mm
03:37 5.1 °C -0.1 °C 1011.1 hPa SE 11.6 km/h 17.7 km/h 69 % 0.0 mm
03:42 5.0 °C -0.2 °C 1011.1 hPa SE 6.9 km/h 12.6 km/h 69 % 0.0 mm
03:47 5.0 °C 0.0 °C 1011.1 hPa SSE 9.3 km/h 16.3 km/h 70 % 0.0 mm
03:52 4.9 °C -0.1 °C 1011.1 hPa SSE 10.5 km/h 16.3 km/h 70 % 0.0 mm
03:57 5.0 °C 0.0 °C 1011.1 hPa SSE 6.4 km/h 14.0 km/h 70 % 0.0 mm
04:02 5.0 °C 0.2 °C 1011.1 hPa SSE 11.9 km/h 17.7 km/h 71 % 0.0 mm
04:07 5.1 °C 0.3 °C 1011.1 hPa SE 15.4 km/h 17.7 km/h 71 % 0.0 mm
04:13 5.2 °C 0.3 °C 1011.1 hPa SE 6.1 km/h 17.2 km/h 71 % 0.0 mm
04:18 5.2 °C 0.6 °C 1011.1 hPa SSE 11.6 km/h 19.8 km/h 72 % 0.0 mm
04:23 5.2 °C 0.6 °C 1011.1 hPa SSW 15.4 km/h 19.8 km/h 72 % 0.0 mm
04:26 5.3 °C 0.7 °C 1011.1 hPa SSE 10.1 km/h 19.5 km/h 72 % 0.0 mm
04:27 5.3 °C 0.7 °C 1011.1 hPa South 13.0 km/h 19.5 km/h 72 % 0.0 mm
04:32 5.3 °C 0.7 °C 1011.1 hPa SSE 17.2 km/h 19.5 km/h 72 % 0.0 mm
04:37 5.3 °C 0.7 °C 1010.0 hPa SSE 12.2 km/h 19.1 km/h 72 % 0.0 mm
04:42 5.3 °C 0.8 °C 1010.0 hPa South 9.0 km/h 17.7 km/h 73 % 0.0 mm
04:47 5.3 °C 0.7 °C 1010.0 hPa SSE 13.0 km/h 20.9 km/h 72 % 0.0 mm
04:52 5.4 °C 0.7 °C 1011.1 hPa SSE 16.3 km/h 22.4 km/h 72 % 0.0 mm
04:57 5.5 °C 0.8 °C 1011.1 hPa South 9.0 km/h 22.4 km/h 72 % 0.0 mm
05:02 5.5 °C 0.8 °C 1011.1 hPa SSE 12.2 km/h 21.6 km/h 72 % 0.0 mm
05:07 5.5 °C 0.7 °C 1010.0 hPa SSE 10.5 km/h 21.6 km/h 71 % 0.0 mm
05:12 5.4 °C 0.6 °C 1010.0 hPa SSE 9.0 km/h 21.2 km/h 71 % 0.0 mm
05:17 5.3 °C 0.4 °C 1010.0 hPa South 12.6 km/h 19.8 km/h 71 % 0.0 mm
05:22 5.3 °C 0.4 °C 1011.1 hPa SSE 13.7 km/h 17.2 km/h 71 % 0.0 mm
05:27 5.3 °C 0.4 °C 1011.1 hPa SSE 13.7 km/h 17.2 km/h 71 % 0.0 mm
05:32 5.3 °C 0.4 °C 1011.1 hPa SSE 13.0 km/h 18.0 km/h 71 % 0.0 mm
05:37 5.4 °C 0.7 °C 1011.1 hPa SSE 12.6 km/h 20.6 km/h 72 % 0.0 mm
05:42 5.4 °C 0.6 °C 1011.1 hPa ESE 9.7 km/h 20.6 km/h 71 % 0.0 mm
05:47 5.4 °C 0.6 °C 1011.1 hPa South 12.6 km/h 20.6 km/h 71 % 0.0 mm
05:52 5.4 °C 0.6 °C 1011.1 hPa South 20.1 km/h 20.6 km/h 71 % 0.0 mm
05:57 5.3 °C 0.4 °C 1011.1 hPa South 10.5 km/h 20.1 km/h 71 % 0.0 mm
06:02 5.3 °C 0.4 °C 1011.1 hPa SSE 14.0 km/h 17.2 km/h 71 % 0.0 mm
06:07 5.3 °C 0.4 °C 1011.1 hPa SSE 6.4 km/h 17.2 km/h 71 % 0.0 mm
06:12 5.2 °C 0.6 °C 1011.1 hPa SSE 9.7 km/h 21.2 km/h 72 % 0.0 mm
06:17 5.2 °C 0.6 °C 1011.1 hPa SSE 9.0 km/h 21.2 km/h 72 % 0.0 mm
06:22 5.2 °C 0.6 °C 1011.1 hPa SSE 5.5 km/h 15.8 km/h 72 % 0.0 mm
06:27 5.2 °C 0.6 °C 1011.1 hPa SSE 17.2 km/h 17.2 km/h 72 % 0.0 mm
06:32 5.2 °C 0.7 °C 1011.1 hPa SSE 10.1 km/h 17.2 km/h 73 % 0.0 mm
06:37 5.2 °C 0.7 °C 1011.1 hPa South 7.9 km/h 19.8 km/h 73 % 0.0 mm
06:42 5.2 °C 0.9 °C 1011.1 hPa South 10.1 km/h 20.6 km/h 74 % 0.0 mm
06:47 5.2 °C 0.9 °C 1011.1 hPa SSE 10.1 km/h 20.6 km/h 74 % 0.0 mm
06:52 5.2 °C 0.9 °C 1011.1 hPa SSE 16.3 km/h 19.5 km/h 74 % 0.0 mm
06:57 5.3 °C 1.2 °C 1011.1 hPa SSE 20.1 km/h 21.2 km/h 75 % 0.0 mm
07:02 5.5 °C 1.6 °C 1011.1 hPa SSW 11.9 km/h 24.8 km/h 76 % 0.0 mm
07:07 5.6 °C 1.7 °C 1011.1 hPa SSW 10.5 km/h 24.8 km/h 76 % 0.0 mm
07:12 5.6 °C 1.7 °C 1011.1 hPa South 13.7 km/h 23.3 km/h 76 % 0.0 mm
07:17 5.6 °C 1.7 °C 1011.1 hPa South 11.6 km/h 19.8 km/h 76 % 0.0 mm
07:22 5.7 °C 1.8 °C 1011.1 hPa South 16.3 km/h 27.4 km/h 76 % 0.0 mm
07:27 5.7 °C 1.8 °C 1011.1 hPa SSW 13.7 km/h 27.4 km/h 76 % 0.0 mm
07:32 5.7 °C 1.8 °C 1011.1 hPa SSW 10.1 km/h 17.7 km/h 76 % 0.0 mm
07:37 5.6 °C 1.7 °C 1010.0 hPa SSE 8.7 km/h 19.1 km/h 76 % 0.0 mm
07:42 5.7 °C 1.8 °C 1010.0 hPa SSE 10.1 km/h 20.6 km/h 76 % 0.0 mm
07:47 5.7 °C 1.8 °C 1010.0 hPa South 10.1 km/h 20.6 km/h 76 % 0.0 mm
07:52 5.7 °C 1.8 °C 1011.1 hPa South 19.8 km/h 19.8 km/h 76 % 0.0 mm
07:57 5.7 °C 1.8 °C 1011.1 hPa SSE 15.8 km/h 19.8 km/h 76 % 0.0 mm
08:02 5.6 °C 1.5 °C 1011.1 hPa SE 10.1 km/h 19.8 km/h 75 % 0.0 mm
08:07 5.6 °C 1.5 °C 1011.1 hPa SSW 10.5 km/h 19.5 km/h 75 % 0.0 mm
08:12 5.6 °C 1.5 °C 1011.1 hPa SSW 11.9 km/h 17.2 km/h 75 % 0.0 mm
08:17 5.6 °C 1.5 °C 1011.1 hPa WSW 9.3 km/h 20.9 km/h 75 % 0.0 mm
08:22 5.6 °C 1.7 °C 1011.1 hPa South 13.0 km/h 21.2 km/h 76 % 0.0 mm
08:27 5.6 °C 1.7 °C 1011.1 hPa South 19.5 km/h 21.2 km/h 76 % 0.0 mm
08:32 5.5 °C 1.6 °C 1011.1 hPa South 11.9 km/h 19.5 km/h 76 % 0.0 mm
08:37 5.4 °C 1.3 °C 1011.1 hPa SSE 16.3 km/h 19.5 km/h 75 % 0.0 mm
08:42 5.4 °C 1.3 °C 1011.1 hPa South 16.6 km/h 20.6 km/h 75 % 0.0 mm
08:47 5.3 °C 1.4 °C 1011.1 hPa SSW 13.7 km/h 20.6 km/h 76 % 0.0 mm
08:52 5.4 °C 1.5 °C 1012.1 hPa SSE 9.7 km/h 17.2 km/h 76 % 0.0 mm
08:57 5.4 °C 1.5 °C 1012.1 hPa SSE 8.7 km/h 17.2 km/h 76 % 0.0 mm
09:02 5.5 °C 1.8 °C 1012.1 hPa SSE 16.3 km/h 19.1 km/h 77 % 0.0 mm
09:07 5.6 °C 1.9 °C 1012.1 hPa South 9.0 km/h 19.8 km/h 77 % 0.0 mm
09:12 5.7 °C 1.9 °C 1012.1 hPa SSW 8.7 km/h 19.8 km/h 77 % 0.0 mm
09:17 5.7 °C 1.9 °C 1012.1 hPa South 19.8 km/h 27.7 km/h 77 % 0.0 mm
09:22 5.8 °C 2.1 °C 1012.1 hPa SSE 11.1 km/h 27.7 km/h 77 % 0.0 mm
09:27 5.8 °C 2.1 °C 1012.1 hPa South 13.0 km/h 25.3 km/h 77 % 0.0 mm
09:32 5.9 °C 2.2 °C 1012.1 hPa South 13.7 km/h 25.3 km/h 77 % 0.0 mm
09:37 6.0 °C 2.2 °C 1012.1 hPa South 11.6 km/h 23.0 km/h 77 % 0.0 mm
09:42 6.2 °C 2.4 °C 1012.1 hPa SSW 9.3 km/h 23.0 km/h 77 % 0.0 mm
09:47 6.2 °C 2.3 °C 1012.1 hPa SSE 11.9 km/h 20.1 km/h 76 % 0.0 mm
09:52 6.2 °C 2.3 °C 1012.1 hPa South 10.5 km/h 20.1 km/h 76 % 0.0 mm
09:57 6.3 °C 2.3 °C 1012.1 hPa SSE 14.0 km/h 20.9 km/h 76 % 0.0 mm
10:02 6.3 °C 2.3 °C 1012.1 hPa South 11.9 km/h 20.9 km/h 76 % 0.0 mm
10:07 6.4 °C 2.6 °C 1012.1 hPa SSE 10.1 km/h 20.6 km/h 77 % 0.0 mm
10:12 6.8 °C 3.0 °C 1012.1 hPa South 27.0 km/h 27.0 km/h 77 % 0.0 mm
10:17 6.8 °C 2.8 °C 1012.1 hPa South 9.7 km/h 27.0 km/h 76 % 0.0 mm
10:22 7.1 °C 3.1 °C 1012.1 hPa SSE 15.4 km/h 27.0 km/h 76 % 0.0 mm
10:27 7.3 °C 3.3 °C 1012.1 hPa SSW 11.6 km/h 20.9 km/h 76 % 0.0 mm
10:32 7.7 °C 3.7 °C 1012.1 hPa SSW 10.1 km/h 20.9 km/h 76 % 0.0 mm
10:37 8.1 °C 3.9 °C 1012.1 hPa SSE 17.2 km/h 20.6 km/h 75 % 0.0 mm
10:42 8.2 °C 4.1 °C 1012.1 hPa SSW 13.7 km/h 20.1 km/h 75 % 0.0 mm
10:47 8.3 °C 3.9 °C 1012.1 hPa SSW 23.3 km/h 25.9 km/h 74 % 0.0 mm
10:53 8.5 °C 3.9 °C 1012.1 hPa South 13.7 km/h 25.9 km/h 73 % 0.0 mm
10:57 8.5 °C 3.9 °C 1012.1 hPa South 16.6 km/h 27.7 km/h 73 % 0.0 mm
11:02 8.7 °C 3.9 °C 1012.1 hPa South 24.5 km/h 27.7 km/h 72 % 0.0 mm
11:07 8.5 °C 3.6 °C 1013.1 hPa South 20.9 km/h 28.5 km/h 71 % 0.0 mm
11:12 8.3 °C 3.4 °C 1013.1 hPa South 16.6 km/h 31.4 km/h 71 % 0.0 mm
11:17 8.3 °C 3.6 °C 1013.1 hPa South 17.7 km/h 31.4 km/h 72 % 0.0 mm
11:22 8.3 °C 3.6 °C 1013.1 hPa South 15.8 km/h 23.8 km/h 72 % 0.0 mm
11:27 8.2 °C 3.7 °C 1013.1 hPa SSW 18.3 km/h 21.9 km/h 73 % 0.0 mm
11:32 8.3 °C 3.8 °C 1013.1 hPa SSW 12.6 km/h 21.6 km/h 73 % 0.0 mm
11:37 8.5 °C 4.2 °C 1013.1 hPa SSW 10.1 km/h 20.6 km/h 74 % 0.0 mm
11:42 8.5 °C 3.9 °C 1013.1 hPa WSW 13.0 km/h 21.2 km/h 73 % 0.0 mm
11:47 8.5 °C 4.2 °C 1013.1 hPa SSW 13.7 km/h 21.2 km/h 74 % 0.0 mm
11:52 8.7 °C 4.3 °C 1013.1 hPa SSE 9.7 km/h 20.9 km/h 74 % 0.0 mm
11:57 8.7 °C 4.3 °C 1013.1 hPa SSW 14.8 km/h 20.1 km/h 74 % 0.0 mm
12:02 8.4 °C 3.9 °C 1013.1 hPa SSW 12.6 km/h 19.1 km/h 73 % 0.0 mm
12:07 8.3 °C 3.9 °C 1013.1 hPa SSW 17.2 km/h 19.1 km/h 74 % 0.0 mm
12:12 8.3 °C 3.9 °C 1013.1 hPa South 13.7 km/h 19.1 km/h 74 % 0.0 mm
12:17 8.3 °C 4.2 °C 1013.1 hPa SSW 13.7 km/h 17.2 km/h 75 % 0.0 mm
12:22 8.4 °C 4.4 °C 1013.1 hPa South 10.5 km/h 15.4 km/h 76 % 0.0 mm
12:27 8.5 °C 4.6 °C 1013.1 hPa SSW 8.7 km/h 14.0 km/h 76 % 0.0 mm
12:32 8.7 °C 4.7 °C 1013.1 hPa SSW 11.6 km/h 14.0 km/h 76 % 0.0 mm
12:37 8.9 °C 4.9 °C 1012.1 hPa SSW 10.1 km/h 20.6 km/h 76 % 0.0 mm
12:42 9.0 °C 5.0 °C 1012.1 hPa SW 20.1 km/h 23.0 km/h 76 % 0.0 mm
12:43 9.0 °C 5.0 °C 1012.1 hPa WSW 9.7 km/h 23.0 km/h 76 % 0.0 mm
12:48 9.0 °C 4.8 °C 1012.1 hPa SSW 23.0 km/h 23.0 km/h 75 % 0.0 mm
12:53 9.0 °C 4.8 °C 1013.1 hPa SW 17.2 km/h 23.0 km/h 75 % 0.0 mm
12:58 9.0 °C 4.8 °C 1013.1 hPa South 13.7 km/h 23.0 km/h 75 % 0.0 mm
13:03 8.9 °C 4.7 °C 1013.1 hPa WSW 15.8 km/h 21.2 km/h 75 % 0.0 mm
13:08 8.9 °C 4.7 °C 1013.1 hPa SSW 9.7 km/h 22.4 km/h 75 % 0.0 mm
13:13 9.1 °C 5.1 °C 1013.1 hPa SW 17.7 km/h 22.4 km/h 76 % 0.0 mm
13:18 9.0 °C 5.0 °C 1013.1 hPa WSW 16.3 km/h 21.2 km/h 76 % 0.0 mm
13:23 9.0 °C 5.0 °C 1013.1 hPa SW 16.6 km/h 21.2 km/h 76 % 0.0 mm
13:28 9.0 °C 5.0 °C 1013.1 hPa SW 16.6 km/h 20.1 km/h 76 % 0.0 mm
13:33 9.0 °C 5.0 °C 1013.1 hPa SSW 17.2 km/h 19.1 km/h 76 % 0.0 mm
13:38 8.9 °C 4.9 °C 1013.1 hPa SW 12.2 km/h 20.1 km/h 76 % 0.0 mm
13:43 8.9 °C 4.9 °C 1013.1 hPa SW 14.8 km/h 20.6 km/h 76 % 0.0 mm
13:48 8.9 °C 4.9 °C 1013.1 hPa South 9.3 km/h 20.6 km/h 76 % 0.0 mm
13:53 8.8 °C 4.8 °C 1013.1 hPa South 8.7 km/h 15.1 km/h 76 % 0.0 mm
13:58 8.8 °C 4.8 °C 1013.1 hPa SSW 15.4 km/h 15.4 km/h 76 % 0.0 mm
14:03 8.7 °C 4.9 °C 1013.1 hPa SW 16.6 km/h 19.8 km/h 77 % 0.0 mm
14:08 8.6 °C 5.0 °C 1014.1 hPa SW 13.0 km/h 19.8 km/h 78 % 0.0 mm
14:13 8.6 °C 5.0 °C 1014.1 hPa SW 9.0 km/h 17.7 km/h 78 % 0.0 mm
14:18 8.7 °C 5.3 °C 1014.1 hPa SSW 14.0 km/h 14.0 km/h 79 % 0.0 mm
14:23 8.7 °C 5.3 °C 1013.1 hPa SW 12.2 km/h 16.6 km/h 79 % 0.0 mm
14:28 8.7 °C 5.3 °C 1013.1 hPa SW 10.1 km/h 16.9 km/h 79 % 0.0 mm
14:33 8.7 °C 5.4 °C 1013.1 hPa SSW 7.9 km/h 16.9 km/h 80 % 0.0 mm
14:38 8.7 °C 5.4 °C 1013.1 hPa SW 9.3 km/h 14.0 km/h 80 % 0.0 mm
14:43 8.7 °C 5.4 °C 1013.1 hPa SW 10.1 km/h 15.8 km/h 80 % 0.0 mm
14:48 8.5 °C 5.4 °C 1013.1 hPa SW 12.2 km/h 16.9 km/h 81 % 0.0 mm
14:53 8.5 °C 5.4 °C 1013.1 hPa SSW 9.7 km/h 16.9 km/h 81 % 0.0 mm
14:58 8.4 °C 5.6 °C 1013.1 hPa SSW 10.5 km/h 17.2 km/h 82 % 0.0 mm
15:03 8.3 °C 5.4 °C 1013.1 hPa SSW 12.2 km/h 17.2 km/h 82 % 0.0 mm
15:08 8.3 °C 5.4 °C 1013.1 hPa SSW 9.3 km/h 14.0 km/h 82 % 0.0 mm
15:13 8.3 °C 5.6 °C 1013.1 hPa SW 8.7 km/h 14.0 km/h 83 % 0.0 mm
15:18 8.3 °C 5.6 °C 1013.1 hPa SSW 7.9 km/h 10.8 km/h 83 % 0.0 mm
15:23 8.3 °C 5.6 °C 1012.1 hPa SSW 8.7 km/h 12.2 km/h 83 % 0.0 mm
15:28 8.2 °C 5.5 °C 1012.1 hPa SSW 6.1 km/h 12.2 km/h 83 % 0.0 mm
15:33 8.2 °C 5.5 °C 1012.1 hPa SW 5.5 km/h 11.6 km/h 83 % 0.0 mm
15:38 8.3 °C 5.8 °C 1013.1 hPa SW 6.1 km/h 9.3 km/h 84 % 0.0 mm
15:43 8.2 °C 5.7 °C 1013.1 hPa SSW 9.0 km/h 9.3 km/h 84 % 0.0 mm
15:48 8.2 °C 5.7 °C 1013.1 hPa SW 2.1 km/h 9.3 km/h 84 % 0.0 mm
15:53 8.2 °C 5.7 °C 1013.1 hPa Calm   9.3 km/h 84 % 0.0 mm
15:58 8.1 °C 5.6 °C 1013.1 hPa SSW 2.1 km/h 7.9 km/h 84 % 0.0 mm
16:03 8.1 °C 5.6 °C 1013.1 hPa Calm   9.3 km/h 84 % 0.0 mm
16:08 8.1 °C 5.6 °C 1013.1 hPa Calm   9.3 km/h 84 % 0.0 mm
16:13 8.1 °C 5.5 °C 1013.1 hPa SW 7.9 km/h 7.9 km/h 84 % 0.0 mm
16:18 8.1 °C 5.5 °C 1013.1 hPa SSW 4.7 km/h 7.9 km/h 84 % 0.0 mm
16:23 7.9 °C 5.4 °C 1014.1 hPa SSW 4.7 km/h 7.9 km/h 84 % 0.0 mm
16:28 7.9 °C 5.4 °C 1014.1 hPa Calm   9.0 km/h 84 % 0.0 mm
16:33 7.9 °C 5.4 °C 1014.1 hPa South 6.4 km/h 9.0 km/h 84 % 0.0 mm
16:38 7.8 °C 5.3 °C 1014.1 hPa South 6.1 km/h 6.9 km/h 84 % 0.0 mm
16:43 7.8 °C 5.3 °C 1014.1 hPa SW 4.3 km/h 6.9 km/h 84 % 0.0 mm
16:48 7.7 °C 5.4 °C 1014.1 hPa South 6.4 km/h 10.5 km/h 85 % 0.0 mm
16:53 7.7 °C 5.3 °C 1013.1 hPa South 4.3 km/h 10.5 km/h 85 % 0.0 mm
16:58 7.4 °C 5.1 °C 1013.1 hPa South 3.5 km/h 6.4 km/h 85 % 0.0 mm
17:03 7.3 °C 4.9 °C 1013.1 hPa South 4.7 km/h 6.1 km/h 85 % 0.0 mm
17:08 7.2 °C 4.8 °C 1014.1 hPa South 4.0 km/h 5.8 km/h 85 % 0.0 mm
17:13 6.9 °C 4.6 °C 1014.1 hPa SSW 6.1 km/h 7.2 km/h 85 % 0.0 mm
17:18 6.8 °C 4.5 °C 1014.1 hPa SSW 6.1 km/h 7.2 km/h 85 % 0.0 mm
17:23 6.7 °C 4.5 °C 1014.1 hPa SSE 6.4 km/h 9.0 km/h 86 % 0.0 mm
17:28 6.6 °C 4.4 °C 1014.1 hPa SSW 6.1 km/h 9.0 km/h 86 % 0.0 mm
17:33 6.6 °C 4.6 °C 1014.1 hPa South 4.3 km/h 8.7 km/h 87 % 0.0 mm
17:38 6.7 °C 4.7 °C 1014.1 hPa South 5.5 km/h 8.7 km/h 87 % 0.0 mm
17:43 6.7 °C 4.7 °C 1014.1 hPa South 6.4 km/h 8.7 km/h 87 % 0.0 mm
17:48 6.7 °C 4.8 °C 1014.1 hPa SSW 6.1 km/h 8.7 km/h 88 % 0.0 mm
17:53 6.6 °C 4.7 °C 1014.1 hPa South 3.2 km/h 7.2 km/h 88 % 0.0 mm
17:58 6.4 °C 4.6 °C 1014.1 hPa SSW 4.0 km/h 7.9 km/h 88 % 0.0 mm
18:03 6.4 °C 4.6 °C 1014.1 hPa South 6.9 km/h 7.9 km/h 88 % 0.0 mm
18:08 6.4 °C 4.7 °C 1014.1 hPa South 9.0 km/h 9.0 km/h 89 % 0.0 mm
18:13 6.3 °C 4.6 °C 1014.1 hPa WSW 3.2 km/h 9.0 km/h 89 % 0.0 mm
18:18 6.3 °C 4.6 °C 1014.1 hPa South 4.3 km/h 7.9 km/h 89 % 0.0 mm
18:23 6.3 °C 4.6 °C 1015.1 hPa South 4.3 km/h 10.1 km/h 89 % 0.0 mm
18:28 6.3 °C 4.8 °C 1015.1 hPa SSW 5.0 km/h 10.1 km/h 90 % 0.0 mm
18:33 6.3 °C 4.8 °C 1015.1 hPa SSW 5.8 km/h 9.0 km/h 90 % 0.0 mm
18:38 6.3 °C 4.9 °C 1015.1 hPa SSW 4.3 km/h 7.9 km/h 91 % 0.0 mm
18:43 6.3 °C 4.9 °C 1015.1 hPa SSW 6.1 km/h 7.2 km/h 91 % 0.0 mm
18:48 6.2 °C 4.8 °C 1015.1 hPa SSW 6.4 km/h 9.0 km/h 91 % 0.0 mm
18:53 6.2 °C 4.8 °C 1015.1 hPa SSW 11.1 km/h 11.1 km/h 91 % 0.0 mm
18:54 6.2 °C 4.8 °C 1015.1 hPa SSW 7.9 km/h 11.1 km/h 91 % 0.0 mm
18:59 6.2 °C 4.8 °C 1015.1 hPa SSW 5.8 km/h 13.0 km/h 91 % 0.0 mm
19:04 6.2 °C 4.9 °C 1015.1 hPa SSW 9.7 km/h 13.0 km/h 92 % 0.0 mm
19:09 6.3 °C 5.1 °C 1015.1 hPa SSW 11.6 km/h 15.4 km/h 92 % 0.0 mm
19:14 6.3 °C 5.1 °C 1015.1 hPa SSW 9.3 km/h 15.4 km/h 92 % 0.0 mm
19:19 6.2 °C 4.9 °C 1015.1 hPa SSW 6.4 km/h 12.6 km/h 92 % 0.0 mm
19:24 6.2 °C 4.9 °C 1015.1 hPa SSW 6.9 km/h 13.0 km/h 92 % 0.0 mm
19:29 6.2 °C 5.1 °C 1015.1 hPa SSW 9.0 km/h 13.0 km/h 93 % 0.0 mm
19:34 6.2 °C 5.1 °C 1015.1 hPa SW 10.1 km/h 13.0 km/h 93 % 0.0 mm
19:39 6.1 °C 5.1 °C 1015.1 hPa South 5.8 km/h 12.6 km/h 93 % 0.0 mm
19:44 6.0 °C 4.8 °C 1015.1 hPa SSW 9.3 km/h 12.2 km/h 92 % 0.0 mm
19:49 5.8 °C 4.7 °C 1015.1 hPa South 6.1 km/h 10.5 km/h 93 % 0.0 mm
19:54 5.7 °C 4.5 °C 1015.1 hPa SSW 5.0 km/h 10.5 km/h 92 % 0.0 mm
19:59 5.6 °C 4.6 °C 1015.1 hPa SW 7.9 km/h 10.5 km/h 93 % 0.0 mm
20:04 5.5 °C 4.4 °C 1015.1 hPa South 10.1 km/h 10.1 km/h 93 % 0.0 mm
20:09 5.5 °C 4.4 °C 1015.1 hPa SW 6.4 km/h 12.6 km/h 93 % 0.0 mm
20:14 5.4 °C 4.3 °C 1015.1 hPa SSW 6.1 km/h 12.6 km/h 93 % 0.0 mm
20:19 5.3 °C 4.3 °C 1015.1 hPa SW 7.9 km/h 12.2 km/h 93 % 0.0 mm
20:24 5.2 °C 4.2 °C 1015.1 hPa SSW 9.0 km/h 12.2 km/h 93 % 0.0 mm
20:29 5.2 °C 4.2 °C 1015.1 hPa SSW 9.3 km/h 10.8 km/h 93 % 0.0 mm
20:34 5.1 °C 4.1 °C 1015.1 hPa SSW 6.9 km/h 10.8 km/h 93 % 0.0 mm
20:39 5.1 °C 4.2 °C 1014.1 hPa WSW 8.7 km/h 9.7 km/h 94 % 0.0 mm
20:44 5.0 °C 4.1 °C 1014.1 hPa SSW 7.6 km/h 11.1 km/h 94 % 0.0 mm
20:49 5.0 °C 4.1 °C 1014.1 hPa SSW 10.5 km/h 11.1 km/h 94 % 0.0 mm
20:54 4.9 °C 4.0 °C 1015.1 hPa SSW 6.1 km/h 10.5 km/h 94 % 0.0 mm
20:59 4.8 °C 3.9 °C 1015.1 hPa SSW 11.9 km/h 11.9 km/h 94 % 0.0 mm
21:04 4.8 °C 4.1 °C 1015.1 hPa South 6.1 km/h 11.9 km/h 95 % 0.0 mm
21:09 4.7 °C 3.9 °C 1014.1 hPa South 7.9 km/h 10.5 km/h 95 % 0.0 mm
21:14 4.6 °C 3.9 °C 1014.1 hPa SSW 9.0 km/h 10.1 km/h 95 % 0.0 mm
21:19 4.5 °C 3.8 °C 1014.1 hPa South 5.0 km/h 10.1 km/h 95 % 0.0 mm
21:24 4.4 °C 3.7 °C 1015.1 hPa SSW 7.6 km/h 10.1 km/h 95 % 0.0 mm
21:29 4.3 °C 3.6 °C 1015.1 hPa SSW 5.8 km/h 10.5 km/h 95 % 0.0 mm
21:34 4.3 °C 3.6 °C 1015.1 hPa SSW 6.4 km/h 10.5 km/h 95 % 0.0 mm
21:39 4.2 °C 3.5 °C 1015.1 hPa SSW 8.7 km/h 10.5 km/h 95 % 0.0 mm
21:44 4.2 °C 3.5 °C 1015.1 hPa SSW 7.6 km/h 10.5 km/h 95 % 0.0 mm
21:49 4.1 °C 3.4 °C 1015.1 hPa SSW 5.0 km/h 10.5 km/h 95 % 0.0 mm
21:54 4.0 °C 3.3 °C 1015.1 hPa SSW 6.9 km/h 10.5 km/h 95 % 0.0 mm
21:59 4.0 °C 3.3 °C 1015.1 hPa South 6.1 km/h 10.5 km/h 95 % 0.0 mm
22:04 3.9 °C 3.2 °C 1015.1 hPa SSW 6.4 km/h 11.9 km/h 95 % 0.0 mm
22:09 3.9 °C 3.3 °C 1015.1 hPa SSW 4.3 km/h 11.9 km/h 96 % 0.0 mm
22:14 3.9 °C 3.3 °C 1015.1 hPa WSW 6.1 km/h 10.1 km/h 96 % 0.0 mm
22:19 3.8 °C 3.2 °C 1015.1 hPa SSW 7.9 km/h 10.1 km/h 96 % 0.0 mm
22:24 3.7 °C 3.2 °C 1016.1 hPa WSW 6.1 km/h 10.1 km/h 96 % 0.0 mm
22:29 3.7 °C 3.2 °C 1016.1 hPa SW 7.9 km/h 10.1 km/h 96 % 0.0 mm
22:34 3.7 °C 3.2 °C 1016.1 hPa SW 4.3 km/h 10.1 km/h 96 % 0.0 mm
22:39 3.7 °C 3.2 °C 1016.1 hPa SSW 5.0 km/h 11.6 km/h 96 % 0.0 mm
22:44 3.7 °C 3.2 °C 1016.1 hPa SW 4.7 km/h 11.6 km/h 96 % 0.0 mm
22:49 3.7 °C 3.2 °C 1016.1 hPa SSW 5.0 km/h 10.5 km/h 96 % 0.0 mm
22:54 3.7 °C 3.3 °C 1016.1 hPa SW 4.0 km/h 10.5 km/h 97 % 0.0 mm
22:59 3.7 °C 3.3 °C 1016.1 hPa SSW 7.6 km/h 9.3 km/h 97 % 0.0 mm
23:04 3.8 °C 3.4 °C 1016.1 hPa SSW 14.0 km/h 14.0 km/h 97 % 0.0 mm
23:09 3.9 °C 3.5 °C 1016.1 hPa SW 7.9 km/h 14.0 km/h 97 % 0.0 mm
23:14 3.9 °C 3.5 °C 1016.1 hPa SW 7.2 km/h 11.9 km/h 97 % 0.0 mm
23:19 4.0 °C 3.6 °C 1016.1 hPa WSW 9.3 km/h 11.9 km/h 97 % 0.0 mm
23:24 4.2 °C 3.8 °C 1016.1 hPa SSW 9.0 km/h 13.0 km/h 97 % 0.0 mm
23:29 4.2 °C 3.8 °C 1016.1 hPa SSW 5.8 km/h 13.0 km/h 97 % 0.0 mm
23:34 4.2 °C 3.8 °C 1016.1 hPa SW 4.7 km/h 10.5 km/h 97 % 0.0 mm
23:39 4.2 °C 3.8 °C 1016.1 hPa SSW 7.6 km/h 9.7 km/h 97 % 0.0 mm
23:44 4.2 °C 3.8 °C 1016.1 hPa SSW 4.0 km/h 9.3 km/h 97 % 0.0 mm
23:49 4.1 °C 3.7 °C 1016.1 hPa SSW 1.4 km/h 8.7 km/h 97 % 0.0 mm
23:54 4.1 °C 3.6 °C 1016.1 hPa South 6.9 km/h 9.0 km/h 96 % 0.0 mm
23:59 4.1 °C 3.6 °C 1016.1 hPa SSW 5.0 km/h 10.1 km/h 96 % 0.0 mm
Le Gheer Warneton
Courtoisie de Weather Underground - 2.25 mb

Mise a jour : 17-12-17 03:15:13
Généré par Cumulus 1.9.4 (1099)